| time (UTC) | temp F | wind direction | speed MPH | gust MPH | rain 1hr in | rain 24hr in | rain mn in | humidity % | barometer mb |
| 20260510230137 | 89 | 346 | 0.0 | 0.0 | 0.00 | 0.00 | 0.00 | 14 | 1005.0 |
| 20260510224536 | 89 | 306 | 0.0 | 6.0 | 0.00 | 0.00 | 0.00 | 14 | 1004.9 |
| 20260510223033 | 89 | 197 | 0.0 | 4.0 | 0.00 | 0.00 | 0.00 | 15 | 1005.1 |
| 20260510221539 | 90 | 259 | 0.0 | 13.0 | 0.00 | 0.00 | 0.00 | 15 | 1005.2 |
| 20260510220033 | 90 | 220 | 0.0 | 4.0 | 0.00 | 0.00 | 0.00 | 15 | 1005.3 |
| 20260510214536 | 91 | 156 | 2.0 | 8.0 | 0.00 | 0.00 | 0.00 | 15 | 1005.4 |
| 20260510213032 | 90 | 246 | 0.0 | 9.0 | 0.00 | 0.00 | 0.00 | 15 | 1005.4 |
| 20260510211530 | 91 | 207 | 0.0 | 10.0 | 0.00 | 0.00 | 0.00 | 14 | 1005.6 |
| 20260510210029 | 90 | 137 | 0.0 | 0.0 | 0.00 | 0.00 | 0.00 | 15 | 1005.8 |
| 20260510204529 | 90 | 81 | 0.0 | 13.0 | 0.00 | 0.00 | 0.00 | 15 | 1006.0 |
| 20260510203027 | 90 | 158 | 1.0 | 7.0 | 0.00 | 0.00 | 0.00 | 16 | 1006.2 |
| 20260510201626 | 90 | 171 | 5.0 | 17.0 | 0.00 | 0.00 | 0.00 | 16 | 1006.1 |
| 20260510200030 | 90 | 98 | 0.0 | 3.0 | 0.00 | 0.00 | 0.00 | 14 | 1006.2 |
| 20260510194532 | 89 | 200 | 0.0 | 0.0 | 0.00 | 0.00 | 0.00 | 15 | 1006.3 |
| 20260510193024 | 89 | 74 | 0.0 | 0.0 | 0.00 | 0.00 | 0.00 | 15 | 1006.5 |
| 20260510191526 | 89 | 70 | 0.0 | 0.0 | 0.00 | 0.00 | 0.00 | 15 | 1006.4 |
| 20260510190022 | 88 | 48 | 0.0 | 0.0 | 0.00 | 0.00 | 0.00 | 15 | 1006.7 |
| 20260510184519 | 88 | 41 | 0.0 | 0.0 | 0.00 | 0.00 | 0.00 | 17 | 1006.8 |
| 20260510183019 | 87 | 61 | 0.0 | 1.0 | 0.00 | 0.00 | 0.00 | 16 | 1006.9 |
| 20260510181515 | 87 | 30 | 0.0 | 3.0 | 0.00 | 0.00 | 0.00 | 18 | 1007.0 |
| 20260510180013 | 86 | 49 | 0.0 | 5.0 | 0.00 | 0.00 | 0.00 | 19 | 1007.2 |
| 20260510174512 | 85 | 55 | 0.0 | 6.0 | 0.00 | 0.00 | 0.00 | 18 | 1007.4 |
| 20260510173011 | 85 | 56 | 0.0 | 4.0 | 0.00 | 0.00 | 0.00 | 19 | 1007.5 |
| 20260510171506 | 84 | 355 | 0.0 | 7.0 | 0.00 | 0.00 | 0.00 | 19 | 1007.4 |
| 20260510170004 | 84 | 27 | 0.0 | 2.0 | 0.00 | 0.00 | 0.00 | 19 | 1007.3 |
| 20260510164602 | 83 | 33 | 0.0 | 6.0 | 0.00 | 0.00 | 0.00 | 19 | 1007.1 |
| 20260510163116 | 83 | 11 | 0.0 | 10.0 | 0.00 | 0.00 | 0.00 | 20 | 1007.3 |
| 20260510161602 | 82 | 86 | 0.0 | 9.0 | 0.00 | 0.00 | 0.00 | 19 | 1007.2 |
| 20260510160059 | 82 | 19 | 1.0 | 9.0 | 0.00 | 0.00 | 0.00 | 20 | 1007.0 |
| 20260510154552 | 82 | 319 | 0.0 | 6.0 | 0.00 | 0.00 | 0.00 | 20 | 1007.0 |
| 20260510153055 | 81 | 17 | 0.0 | 3.0 | 0.00 | 0.00 | 0.00 | 20 | 1006.9 |
| 20260510151551 | 80 | 314 | 0.0 | 2.0 | 0.00 | 0.00 | 0.00 | 21 | 1007.1 |
| 20260510150051 | 80 | 341 | 0.0 | 6.0 | 0.00 | 0.00 | 0.00 | 21 | 1007.1 |
| 20260510144547 | 79 | 332 | 0.0 | 8.0 | 0.00 | 0.00 | 0.00 | 20 | 1007.0 |
| 20260510143051 | 79 | 333 | 2.0 | 10.0 | 0.00 | 0.00 | 0.00 | 20 | 1006.8 |
| 20260510141542 | 78 | 341 | 0.0 | 4.0 | 0.00 | 0.00 | 0.00 | 21 | 1006.7 |
| 20260510140039 | 78 | 345 | 0.0 | 5.0 | 0.00 | 0.00 | 0.00 | 21 | 1006.8 |
| 20260510134539 | 77 | 340 | 0.0 | 3.0 | 0.00 | 0.00 | 0.00 | 22 | 1006.6 |
| 20260510133038 | 76 | 7 | 0.0 | 7.0 | 0.00 | 0.00 | 0.00 | 23 | 1006.4 |
| 20260510131536 | 75 | 330 | 0.0 | 9.0 | 0.00 | 0.00 | 0.00 | 24 | 1006.4 |
| 20260510130035 | 72 | 340 | 0.0 | 7.0 | 0.00 | 0.00 | 0.00 | 26 | 1006.4 |
| 20260510124537 | 72 | 315 | 0.0 | 5.0 | 0.00 | 0.00 | 0.00 | 26 | 1006.1 |
| 20260510123034 | 72 | 311 | 0.0 | 0.0 | 0.00 | 0.00 | 0.00 | 26 | 1006.0 |
| 20260510121532 | 73 | 14 | 0.0 | 0.0 | 0.00 | 0.00 | 0.00 | 24 | 1005.8 |
| 20260510120033 | 74 | 314 | 0.0 | 0.0 | 0.00 | 0.00 | 0.00 | 24 | 1006.4 |
| 20260510114529 | 75 | 358 | 0.0 | 7.0 | 0.00 | 0.00 | 0.00 | 23 | 1006.0 |
| 20260510113029 | 74 | 29 | 0.0 | 8.0 | 0.00 | 0.00 | 0.00 | 27 | 1005.3 |
| 20260510111526 | 74 | 30 | 0.0 | 1.0 | 0.00 | 0.00 | 0.00 | 23 | 1005.6 |
| 20260510110025 | 74 | 32 | 0.0 | 0.0 | 0.00 | 0.00 | 0.00 | 24 | 1005.8 |
| 20260510104525 | 74 | 27 | 0.0 | 0.0 | 0.00 | 0.00 | 0.00 | 22 | 1005.8 |
| 20260510103024 | 74 | 73 | 0.0 | 0.0 | 0.00 | 0.00 | 0.00 | 24 | 1005.5 |
| 20260510101520 | 75 | 357 | 0.0 | 0.0 | 0.00 | 0.00 | 0.00 | 25 | 1005.4 |
| 20260510100019 | 75 | 13 | 0.0 | 1.0 | 0.00 | 0.00 | 0.00 | 23 | 1005.3 |
| 20260510094518 | 73 | 46 | 0.0 | 6.0 | 0.00 | 0.00 | 0.00 | 29 | 1004.9 |
| 20260510093116 | 74 | 84 | 0.0 | 1.0 | 0.00 | 0.00 | 0.00 | 22 | 1004.8 |
| 20260510091514 | 72 | 32 | 0.0 | 1.0 | 0.00 | 0.00 | 0.00 | 24 | 1004.8 |
| 20260510090016 | 71 | 317 | 0.0 | 0.0 | 0.00 | 0.00 | 0.00 | 24 | 1004.2 |
| 20260510084508 | 72 | 36 | 0.0 | 0.0 | 0.00 | 0.00 | 0.00 | 24 | 1004.1 |
| 20260510083007 | 73 | 300 | 0.0 | 0.0 | 0.00 | 0.00 | 0.00 | 23 | 1004.1 |
| 20260510081520 | 73 | 340 | 0.0 | 0.0 | 0.00 | 0.00 | 0.00 | 24 | 1004.2 |
| 20260510080005 | 73 | 12 | 0.0 | 0.0 | 0.00 | 0.00 | 0.00 | 23 | 1004.0 |
| 20260510074505 | 74 | 311 | 0.0 | 0.0 | 0.00 | 0.00 | 0.00 | 22 | 1004.0 |
| 20260510073003 | 75 | 17 | 0.0 | 0.0 | 0.00 | 0.00 | 0.00 | 22 | 1004.0 |
| 20260510071502 | 73 | 8 | 0.0 | 0.0 | 0.00 | 0.00 | 0.00 | 24 | 1004.0 |
| 20260510070001 | 73 | 44 | 0.0 | 0.0 | 0.00 | 0.00 | 0.00 | 26 | 1004.1 |
| 20260510064603 | 73 | 319 | 0.0 | 0.0 | 0.00 | 0.00 | 0.00 | 23 | 1004.0 |
| 20260510063057 | 73 | 32 | 0.0 | 0.0 | 0.00 | 0.00 | 0.00 | 24 | 1003.9 |
| 20260510061554 | 74 | 32 | 0.0 | 0.0 | 0.00 | 0.00 | 0.00 | 24 | 1003.9 |
| 20260510060051 | 77 | 360 | 0.0 | 0.0 | 0.00 | 0.00 | 0.00 | 21 | 1003.8 |
| 20260510054549 | 79 | 309 | 1.0 | 5.0 | 0.00 | 0.00 | 0.00 | 19 | 1003.9 |
| 20260510053104 | 77 | 49 | 0.0 | 0.0 | 0.00 | 0.00 | 0.00 | 22 | 1003.8 |
| 20260510051556 | 76 | 53 | 0.0 | 1.0 | 0.00 | 0.00 | 0.00 | 22 | 1003.7 |
| 20260510050058 | 75 | 40 | 0.0 | 0.0 | 0.00 | 0.00 | 0.00 | 24 | 1003.5 |
| 20260510044556 | 78 | 336 | 0.0 | 3.0 | 0.00 | 0.00 | 0.00 | 20 | 1003.6 |
| 20260510043053 | 78 | 294 | 0.0 | 0.0 | 0.00 | 0.00 | 0.00 | 19 | 1003.4 |
| 20260510041545 | 80 | 294 | 0.0 | 0.0 | 0.00 | 0.00 | 0.00 | 18 | 1003.4 |
| 20260510040145 | 82 | 298 | 0.0 | 0.0 | 0.00 | 0.00 | 0.00 | 18 | 1003.2 |
| 20260510034545 | 83 | 308 | 0.0 | 0.0 | 0.00 | 0.00 | 0.00 | 18 | 1002.9 |
| 20260510033057 | 84 | 309 | 0.0 | 5.0 | 0.00 | 0.00 | 0.00 | 17 | 1002.6 |
| 20260510031542 | 84 | 305 | 0.0 | 2.0 | 0.00 | 0.00 | 0.00 | 17 | 1002.5 |
| 20260510030046 | 85 | 307 | 0.0 | 4.0 | 0.00 | 0.00 | 0.00 | 17 | 1002.4 |
| 20260510024541 | 86 | 294 | 0.0 | 11.0 | 0.00 | 0.00 | 0.00 | 16 | 1002.2 |
| 20260510023040 | 86 | 304 | 3.0 | 15.0 | 0.00 | 0.00 | 0.00 | 16 | 1001.9 |
| 20260510021539 | 87 | 309 | 0.0 | 0.0 | 0.00 | 0.00 | 0.00 | 15 | 1001.8 |
| 20260510020039 | 88 | 298 | 0.0 | 6.0 | 0.00 | 0.00 | 0.00 | 14 | 1001.4 |
| 20260510014541 | 88 | 295 | 2.0 | 27.0 | 0.00 | 0.00 | 0.00 | 14 | 1001.5 |
| 20260510013038 | 86 | 45 | 0.0 | 0.0 | 0.00 | 0.00 | 0.00 | 17 | 1001.2 |
| 20260510011537 | 86 | 49 | 0.0 | 0.0 | 0.00 | 0.00 | 0.00 | 16 | 1000.9 |
| 20260510010037 | 89 | 38 | 0.0 | 0.0 | 0.00 | 0.00 | 0.00 | 15 | 1001.0 |
| 20260510004540 | 89 | 44 | 0.0 | 0.0 | 0.00 | 0.00 | 0.00 | 14 | 1001.0 |
| 20260510003043 | 89 | 300 | 2.0 | 10.0 | 0.00 | 0.00 | 0.00 | 15 | 1001.2 |
| 20260510001536 | 90 | 210 | 0.0 | 2.0 | 0.00 | 0.00 | 0.00 | 13 | 1000.4 |
| 20260510000035 | 91 | 243 | 0.0 | 5.0 | 0.00 | 0.00 | 0.00 | 12 | 1000.3 |
| 20260509234545 | 91 | 148 | 0.0 | 0.0 | 0.00 | 0.00 | 0.00 | 12 | 1000.4 |
| 20260509233032 | 91 | 160 | 0.0 | 0.0 | 0.00 | 0.00 | 0.00 | 13 | 1000.5 |
| 20260509231532 | 91 | 133 | 0.0 | 7.0 | 0.00 | 0.00 | 0.00 | 13 | 1000.6 |